Bithav — PCAQ — position and weather

sailwx.info

Track history (hours):
 
Tides and Currents Weather Stations Pressure Air Temp Water Temp Dewpoint Dewpoint Depression Visibility Wind Speed Wind Dir Waves Ship Positions

Bithav

Last reported at 2017-Sep-21 11:41 UTC. Time now 2017-Sep-21 12:14 UTC.
Position N 53°21' W 006°12'.

Length 115 m; draft 6.2 m.

Type: Ship. MMSI: 246697000.

Date/timePositionNaut miles runAvg speedWind from/ knotsBaromVisibWave heightAir tempDewpointWater temp
2017-Sep-21 11:41N 53°21' W 006°12'0 0.0
2017-Sep-21 11:07N 53°21' W 006°12'0 0.0
2017-Sep-21 10:58N 53°21' W 006°12'0 0.0
2017-Sep-21 09:46N 53°21' W 006°12'0 0.0
2017-Sep-21 09:13N 53°21' W 006°12'0 0.0
2017-Sep-21 03:52N 53°21' W 006°12'0 0.2
2017-Sep-21 03:29N 53°21' W 006°12'3 6.3
2017-Sep-21 03:00N 53°20' W 006°07'510.5
2017-Sep-21 02:30N 53°17' W 006°01'4410.6
2017-Sep-20 22:24N 52°34' W 005°51'513.5
2017-Sep-20 22:00N 52°28' W 005°50'713.7
2017-Sep-20 21:31N 52°22' W 005°49'713.3
2017-Sep-20 21:01N 52°15' W 005°49'713.5
2017-Sep-20 20:30N 52°08' W 005°48'8913.7
2017-Sep-20 13:59N 50°39' W 005°54'1013.0
2017-Sep-20 13:13N 50°29' W 005°54'313.8
2017-Sep-20 13:00N 50°26' W 005°54'2513.9
2017-Sep-20 11:12N 50°01' W 005°55'3010.5
2017-Sep-20 08:20N 49°53' W 005°10'412.4
2017-Sep-20 07:59N 49°53' W 005°04'612.0
2017-Sep-20 07:28N 49°53' W 004°54'511.6
2017-Sep-20 07:00N 49°54' W 004°46'611.2
2017-Sep-20 06:30N 49°54' W 004°37'611.4
2017-Sep-20 06:00N 49°54' W 004°28'611.4
2017-Sep-20 05:30N 49°55' W 004°19'611.4
2017-Sep-20 05:00N 49°55' W 004°10'611.4
2017-Sep-20 04:30N 49°56' W 004°02'611.6
2017-Sep-20 04:00N 49°56' W 003°53'612.1
2017-Sep-20 03:30N 49°56' W 003°43'612.7
2017-Sep-20 03:00N 49°57' W 003°33'713.3
2017-Sep-20 02:30N 49°57' W 003°23'713.9
2017-Sep-20 02:00N 49°58' W 003°12'714.2
2017-Sep-20 01:30N 49°58' W 003°01'714.5
2017-Sep-20 01:00N 49°60' W 002°50'3314.0
2017-Sep-19 22:41N 50°01' W 001°60'212.3
2017-Sep-19 22:31N 50°00' W 001°56'612.1
2017-Sep-19 22:01N 49°58' W 001°48'611.3
2017-Sep-19 21:30N 49°56' W 001°40'510.8
2017-Sep-19 21:00N 49°54' W 001°32'510.2
2017-Sep-19 20:30N 49°52' W 001°25'5 9.5
2017-Sep-19 20:00N 49°50' W 001°18'4 8.7
2017-Sep-19 19:31N 49°49' W 001°11'4 8.5
2017-Sep-19 19:00N 49°47' W 001°06'5 9.1
2017-Sep-19 18:31N 49°45' W 000°59'2511.7
2017-Sep-19 16:22N 49°34' W 000°25'513.8
2017-Sep-19 16:00N 49°32' W 000°17'714.1
2017-Sep-19 15:30N 49°30' W 000°07'713.0
2017-Sep-19 15:00N 49°27' E 000°02'612.4
2017-Sep-19 14:30N 49°26' E 000°11'714.3
2017-Sep-19 14:00N 49°27' E 000°22'7 0.2
2017-Sep-18 11:22N 49°28' E 000°32'0 0.1
2017-Sep-18 10:57N 49°28' E 000°32'3 6.5
2017-Sep-18 10:30N 49°28' E 000°28'713.2
2017-Sep-18 10:00N 49°26' E 000°18'713.0
2017-Sep-18 09:30N 49°26' E 000°08'612.3
2017-Sep-18 09:00N 49°29' W 000°00'510.0
2017-Sep-18 08:30N 49°29' E 000°08'0 0.3
2017-Sep-18 07:59N 49°29' E 000°08'0 0.0
2017-Sep-18 07:29N 49°29' E 000°08'0 0.0
2017-Sep-18 06:58N 49°29' E 000°08'0 0.0
2017-Sep-18 06:28N 49°29' E 000°08'0 0.0
2017-Sep-18 05:58N 49°29' E 000°08'0 0.0
2017-Sep-18 05:28N 49°29' E 000°08'0 0.0
2017-Sep-18 04:58N 49°29' E 000°08'0 0.0
2017-Sep-18 04:30N 49°29' E 000°08'0 0.0
2017-Sep-18 04:00N 49°29' E 000°08'0 0.0
2017-Sep-18 03:30N 49°29' E 000°08'0 0.0
2017-Sep-18 03:00N 49°29' E 000°08'0 0.0
2017-Sep-18 02:30N 49°29' E 000°08'0 0.0
2017-Sep-18 01:59N 49°29' E 000°08'0 0.0
2017-Sep-18 01:29N 49°29' E 000°08'0 0.0
2017-Sep-18 00:59N 49°29' E 000°08'0 0.0
2017-Sep-18 00:29N 49°29' E 000°08'0 0.0
2017-Sep-17 23:58N 49°29' E 000°08'0 0.0
2017-Sep-17 23:28N 49°29' E 000°08'0 0.0
2017-Sep-17 22:58N 49°29' E 000°08'0 0.0
2017-Sep-17 22:28N 49°29' E 000°08'0 0.0
2017-Sep-17 21:58N 49°29' E 000°08'0 0.0
2017-Sep-17 21:30N 49°29' E 000°08'0 0.0
2017-Sep-17 20:57N 49°29' E 000°08'0 0.0
2017-Sep-17 20:30N 49°29' E 000°08'0 0.0
2017-Sep-17 20:00N 49°29' E 000°08'0 0.0
2017-Sep-17 19:29N 49°29' E 000°08'0 0.0
2017-Sep-17 18:59N 49°29' E 000°08'0 0.0
2017-Sep-17 18:29N 49°29' E 000°08'0 0.0
2017-Sep-17 17:59N 49°29' E 000°08'0 0.0
2017-Sep-17 17:29N 49°29' E 000°08'0 0.0
2017-Sep-17 16:55N 49°29' E 000°08'0 0.0
2017-Sep-17 16:28N 49°29' E 000°08'0 0.0
2017-Sep-17 15:58N 49°29' E 000°08'0 0.0
2017-Sep-17 15:28N 49°29' E 000°08'0 0.0
2017-Sep-17 15:01N 49°29' E 000°08'0 0.0
2017-Sep-17 14:30N 49°29' E 000°08'0 0.0
2017-Sep-17 14:00N 49°29' E 000°08'0 0.0
2017-Sep-17 13:30N 49°29' E 000°08'0 0.0
2017-Sep-17 13:00N 49°29' E 000°08'0 0.0
2017-Sep-17 12:29N 49°29' E 000°08'0 0.0
2017-Sep-17 11:59N 49°29' E 000°08'0 0.0
2017-Sep-17 11:30N 49°29' E 000°08'0 0.0
2017-Sep-17 10:59N 49°29' E 000°08'0 0.0
2017-Sep-17 10:29N 49°29' E 000°08'0 0.0
2017-Sep-17 09:58N 49°29' E 000°08'0 0.0
2017-Sep-17 09:28N 49°29' E 000°08'0 0.0
2017-Sep-17 08:58N 49°29' E 000°08'0 0.0
2017-Sep-17 08:28N 49°29' E 000°08'0 0.0
2017-Sep-17 08:00N 49°29' E 000°08'0 0.0
2017-Sep-17 07:30N 49°29' E 000°08'0 0.0
2017-Sep-17 07:00N 49°29' E 000°08'0 0.0
2017-Sep-17 06:30N 49°29' E 000°08'0 0.0
2017-Sep-17 06:00N 49°29' E 000°08'0 0.0
2017-Sep-17 05:29N 49°29' E 000°08'0 0.0
2017-Sep-17 04:59N 49°29' E 000°08'0 0.0
2017-Sep-17 04:29N 49°29' E 000°08'0 0.0
2017-Sep-17 03:59N 49°29' E 000°08'0 0.0
2017-Sep-17 03:29N 49°29' E 000°08'0 0.0
2017-Sep-17 02:58N 49°29' E 000°08'0 0.0
2017-Sep-17 02:28N 49°29' E 000°08'0 0.0
2017-Sep-17 01:58N 49°29' E 000°08'0 0.0
2017-Sep-17 01:28N 49°29' E 000°08'0 0.0
2017-Sep-17 01:00N 49°29' E 000°08'0 0.0
2017-Sep-17 00:30N 49°29' E 000°08'0 0.0
2017-Sep-17 00:00N 49°29' E 000°08'0 0.0
2017-Sep-16 23:30N 49°29' E 000°08'0 0.0
2017-Sep-16 23:00N 49°29' E 000°08'0 0.0
2017-Sep-16 22:29N 49°29' E 000°08'0 0.0
2017-Sep-16 21:59N 49°29' E 000°08'0 0.0
2017-Sep-16 21:29N 49°29' E 000°08'0 0.0
2017-Sep-16 20:59N 49°29' E 000°08'0 0.0
2017-Sep-16 20:29N 49°29' E 000°08'0 0.0
2017-Sep-16 19:58N 49°29' E 000°08'0 0.0
2017-Sep-16 19:28N 49°29' E 000°08'0 0.0
2017-Sep-16 18:58N 49°29' E 000°08'0 0.0
2017-Sep-16 18:28N 49°29' E 000°08'0 0.0
2017-Sep-16 18:00N 49°29' E 000°08'0 0.0
2017-Sep-16 17:30N 49°29' E 000°08'0 0.0
2017-Sep-16 17:00N 49°29' E 000°08'0 0.0
2017-Sep-16 16:30N 49°29' E 000°08'0 0.0
2017-Sep-16 16:00N 49°29' E 000°08'0 0.0
2017-Sep-16 15:29N 49°29' E 000°08'0 0.0
2017-Sep-16 14:59N 49°29' E 000°08'0 0.0
2017-Sep-16 14:29N 49°29' E 000°08'0 0.0
2017-Sep-16 13:59N 49°29' E 000°08'0 0.0
2017-Sep-16 13:29N 49°29' E 000°08'0 0.0
2017-Sep-16 12:58N 49°29' E 000°08'0 0.0
2017-Sep-16 12:28N 49°29' E 000°08'0 0.0
2017-Sep-16 11:58N 49°29' E 000°08'0 0.0
2017-Sep-16 11:28N 49°29' E 000°08'0 0.0
2017-Sep-16 11:00N 49°29' E 000°08'0 0.0
2017-Sep-16 10:30N 49°29' E 000°08'0 0.0
2017-Sep-16 10:00N 49°29' E 000°08'0 0.0
2017-Sep-16 09:30N 49°29' E 000°08'0 0.0
2017-Sep-16 09:00N 49°29' E 000°08'0 0.0
2017-Sep-16 08:29N 49°29' E 000°08'0 0.0
2017-Sep-16 07:59N 49°29' E 000°08'0 0.0
2017-Sep-16 07:29N 49°29' E 000°08'0 0.0
2017-Sep-16 06:59N 49°29' E 000°08'0 0.0
2017-Sep-16 06:29N 49°29' E 000°08'0 0.0
2017-Sep-16 05:55N 49°29' E 000°08'0 0.0
2017-Sep-16 05:28N 49°29' E 000°08'0 0.0
2017-Sep-16 04:58N 49°29' E 000°08'0 0.0
2017-Sep-16 04:28N 49°29' E 000°08'0 0.0
2017-Sep-16 04:00N 49°29' E 000°08'0 0.0
2017-Sep-16 03:30N 49°29' E 000°08'0 0.0
2017-Sep-16 03:00N 49°29' E 000°08'0 0.0
2017-Sep-16 02:30N 49°29' E 000°08'0 0.0
2017-Sep-16 02:00N 49°29' E 000°08'0 0.0
2017-Sep-16 01:29N 49°29' E 000°08'0 0.0
2017-Sep-16 00:59N 49°29' E 000°08'0 0.0
2017-Sep-16 00:29N 49°29' E 000°08'0 0.0
2017-Sep-15 23:59N 49°29' E 000°08'0 0.0
2017-Sep-15 23:28N 49°29' E 000°08'0 0.0
2017-Sep-15 22:58N 49°29' E 000°08'0 0.0
2017-Sep-15 22:28N 49°29' E 000°08'0 0.0
2017-Sep-15 21:58N 49°29' E 000°08'0 0.0
2017-Sep-15 21:30N 49°29' E 000°08'0 0.5
2017-Sep-15 21:00N 49°29' E 000°08'4 8.1
2017-Sep-15 20:30N 49°30' E 000°02'611.1
2017-Sep-15 20:00N 49°32' W 000°06'612.2
2017-Sep-15 19:30N 49°38' W 000°07'713.8
2017-Sep-15 19:00N 49°45' W 000°09'713.6
2017-Sep-15 18:30N 49°52' W 000°09'2712.5
2017-Sep-15 16:21N 50°19' W 000°07'411.9
2017-Sep-15 16:00N 50°23' W 000°07'510.2
2017-Sep-15 15:30N 50°28' W 000°05'511.0
2017-Sep-15 15:00N 50°29' E 000°04'611.3
2017-Sep-15 14:30N 50°31' E 000°12'611.7
2017-Sep-15 14:00N 50°32' E 000°21'612.1
2017-Sep-15 13:30N 50°34' E 000°30'612.2
2017-Sep-15 13:00N 50°37' E 000°39'612.8
2017-Sep-15 12:30N 50°41' E 000°46'713.0
2017-Sep-15 12:00N 50°45' E 000°54'713.0
2017-Sep-15 11:28N 50°50' E 001°02'812.8
2017-Sep-15 10:48N 50°56' E 001°12'412.3
2017-Sep-15 10:30N 50°58' E 001°16'612.0
2017-Sep-15 10:00N 51°02' E 001°24'611.7
2017-Sep-15 09:30N 51°06' E 001°31'611.2
2017-Sep-15 09:00N 51°09' E 001°38'510.9
2017-Sep-15 08:30N 51°13' E 001°44'510.7
2017-Sep-15 08:00N 51°17' E 001°49'611.2
2017-Sep-15 07:30N 51°22' E 001°53'611.5
2017-Sep-15 07:00N 51°27' E 001°57'611.8
2017-Sep-15 06:30N 51°32' E 002°04'612.0
2017-Sep-15 06:00N 51°36' E 002°11'712.2
2017-Sep-15 05:26N 51°41' E 002°19'512.7
2017-Sep-15 05:00N 51°45' E 002°25'  
2017-Sep-12 00:01N 66°35' E 011°21'011.9
2017-Sep-12 00:00N 66°36' E 011°22'612.7
2017-Sep-11 23:29N 66°41' E 011°30'612.1
2017-Sep-11 23:00N 66°46' E 011°38'3412.3
2017-Sep-11 20:11N 67°07' E 012°48'213.4
2017-Sep-11 20:00N 67°08' E 012°54'713.5
2017-Sep-11 19:30N 67°10' E 013°11'713.9
2017-Sep-11 18:59N 67°12' E 013°28'713.8
2017-Sep-11 18:30N 67°14' E 013°45'713.1
2017-Sep-11 18:01N 67°12' E 014°01'612.5
2017-Sep-11 17:30N 67°16' E 014°14'4 7.3
2017-Sep-11 17:00N 67°17' E 014°23'0 0.0
2017-Sep-11 16:28N 67°17' E 014°23'0 0.0
2017-Sep-11 15:58N 67°17' E 014°23'0 0.0
2017-Sep-11 15:28N 67°17' E 014°23'0 0.3
2017-Sep-11 15:00N 67°17' E 014°23'4 7.2
2017-Sep-11 14:31N 67°15' E 014°17'713.4
2017-Sep-11 14:00N 67°16' E 014°34'4 6.4
2017-Sep-11 13:22N 67°18' E 014°43'0 0.0
2017-Sep-11 12:55N 67°18' E 014°43'0 0.0
2017-Sep-11 12:25N 67°18' E 014°43'0 0.0
2017-Sep-11 12:01N 67°18' E 014°43'  
Track history (hours):
 
Tides and Currents Weather Stations Pressure Air Temp Water Temp Dewpoint Dewpoint Depression Visibility Wind Speed Wind Dir Waves Ship Positions

Bithav

Last reported at 2017-Sep-21 11:41 UTC. Time now 2017-Sep-21 12:14 UTC.
Position N 53°21' W 006°12'.

Length 115 m; draft 6.2 m.

Type: Ship. MMSI: 246697000.

Date/timePositionNaut miles runAvg speedWind from/ knotsBaromVisibWave heightAir tempDewpointWater temp
2017-Sep-21 11:41N 53°21' W 006°12'0 0.0
2017-Sep-21 11:07N 53°21' W 006°12'0 0.0
2017-Sep-21 10:58N 53°21' W 006°12'0 0.0
2017-Sep-21 09:46N 53°21' W 006°12'0 0.0
2017-Sep-21 09:13N 53°21' W 006°12'0 0.0
2017-Sep-21 03:52N 53°21' W 006°12'0 0.2
2017-Sep-21 03:29N 53°21' W 006°12'3 6.3
2017-Sep-21 03:00N 53°20' W 006°07'510.5
2017-Sep-21 02:30N 53°17' W 006°01'4410.6
2017-Sep-20 22:24N 52°34' W 005°51'513.5
2017-Sep-20 22:00N 52°28' W 005°50'713.7
2017-Sep-20 21:31N 52°22' W 005°49'713.3
2017-Sep-20 21:01N 52°15' W 005°49'713.5
2017-Sep-20 20:30N 52°08' W 005°48'8913.7
2017-Sep-20 13:59N 50°39' W 005°54'1013.0
2017-Sep-20 13:13N 50°29' W 005°54'313.8
2017-Sep-20 13:00N 50°26' W 005°54'2513.9
2017-Sep-20 11:12N 50°01' W 005°55'3010.5
2017-Sep-20 08:20N 49°53' W 005°10'412.4
2017-Sep-20 07:59N 49°53' W 005°04'612.0
2017-Sep-20 07:28N 49°53' W 004°54'511.6
2017-Sep-20 07:00N 49°54' W 004°46'611.2
2017-Sep-20 06:30N 49°54' W 004°37'611.4
2017-Sep-20 06:00N 49°54' W 004°28'611.4
2017-Sep-20 05:30N 49°55' W 004°19'611.4
2017-Sep-20 05:00N 49°55' W 004°10'611.4
2017-Sep-20 04:30N 49°56' W 004°02'611.6
2017-Sep-20 04:00N 49°56' W 003°53'612.1
2017-Sep-20 03:30N 49°56' W 003°43'612.7
2017-Sep-20 03:00N 49°57' W 003°33'713.3
2017-Sep-20 02:30N 49°57' W 003°23'713.9
2017-Sep-20 02:00N 49°58' W 003°12'714.2
2017-Sep-20 01:30N 49°58' W 003°01'714.5
2017-Sep-20 01:00N 49°60' W 002°50'3314.0
2017-Sep-19 22:41N 50°01' W 001°60'212.3
2017-Sep-19 22:31N 50°00' W 001°56'612.1
2017-Sep-19 22:01N 49°58' W 001°48'611.3
2017-Sep-19 21:30N 49°56' W 001°40'510.8
2017-Sep-19 21:00N 49°54' W 001°32'510.2
2017-Sep-19 20:30N 49°52' W 001°25'5 9.5
2017-Sep-19 20:00N 49°50' W 001°18'4 8.7
2017-Sep-19 19:31N 49°49' W 001°11'4 8.5
2017-Sep-19 19:00N 49°47' W 001°06'5 9.1
2017-Sep-19 18:31N 49°45' W 000°59'2511.7
2017-Sep-19 16:22N 49°34' W 000°25'513.8
2017-Sep-19 16:00N 49°32' W 000°17'714.1
2017-Sep-19 15:30N 49°30' W 000°07'713.0
2017-Sep-19 15:00N 49°27' E 000°02'612.4
2017-Sep-19 14:30N 49°26' E 000°11'714.3
2017-Sep-19 14:00N 49°27' E 000°22'7 0.2
2017-Sep-18 11:22N 49°28' E 000°32'0 0.1
2017-Sep-18 10:57N 49°28' E 000°32'3 6.5
2017-Sep-18 10:30N 49°28' E 000°28'713.2
2017-Sep-18 10:00N 49°26' E 000°18'713.0
2017-Sep-18 09:30N 49°26' E 000°08'612.3
2017-Sep-18 09:00N 49°29' W 000°00'510.0
2017-Sep-18 08:30N 49°29' E 000°08'0 0.3
2017-Sep-18 07:59N 49°29' E 000°08'0 0.0
2017-Sep-18 07:29N 49°29' E 000°08'0 0.0
2017-Sep-18 06:58N 49°29' E 000°08'0 0.0
2017-Sep-18 06:28N 49°29' E 000°08'0 0.0
2017-Sep-18 05:58N 49°29' E 000°08'0 0.0
2017-Sep-18 05:28N 49°29' E 000°08'0 0.0
2017-Sep-18 04:58N 49°29' E 000°08'0 0.0
2017-Sep-18 04:30N 49°29' E 000°08'0 0.0
2017-Sep-18 04:00N 49°29' E 000°08'0 0.0
2017-Sep-18 03:30N 49°29' E 000°08'0 0.0
2017-Sep-18 03:00N 49°29' E 000°08'0 0.0
2017-Sep-18 02:30N 49°29' E 000°08'0 0.0
2017-Sep-18 01:59N 49°29' E 000°08'0 0.0
2017-Sep-18 01:29N 49°29' E 000°08'0 0.0
2017-Sep-18 00:59N 49°29' E 000°08'0 0.0
2017-Sep-18 00:29N 49°29' E 000°08'0 0.0
2017-Sep-17 23:58N 49°29' E 000°08'0 0.0
2017-Sep-17 23:28N 49°29' E 000°08'0 0.0
2017-Sep-17 22:58N 49°29' E 000°08'0 0.0
2017-Sep-17 22:28N 49°29' E 000°08'0 0.0
2017-Sep-17 21:58N 49°29' E 000°08'0 0.0
2017-Sep-17 21:30N 49°29' E 000°08'0 0.0
2017-Sep-17 20:57N 49°29' E 000°08'0 0.0
2017-Sep-17 20:30N 49°29' E 000°08'0 0.0
2017-Sep-17 20:00N 49°29' E 000°08'0 0.0
2017-Sep-17 19:29N 49°29' E 000°08'0 0.0
2017-Sep-17 18:59N 49°29' E 000°08'0 0.0
2017-Sep-17 18:29N 49°29' E 000°08'0 0.0
2017-Sep-17 17:59N 49°29' E 000°08'0 0.0
2017-Sep-17 17:29N 49°29' E 000°08'0 0.0
2017-Sep-17 16:55N 49°29' E 000°08'0 0.0
2017-Sep-17 16:28N 49°29' E 000°08'0 0.0
2017-Sep-17 15:58N 49°29' E 000°08'0 0.0
2017-Sep-17 15:28N 49°29' E 000°08'0 0.0
2017-Sep-17 15:01N 49°29' E 000°08'0 0.0
2017-Sep-17 14:30N 49°29' E 000°08'0 0.0
2017-Sep-17 14:00N 49°29' E 000°08'0 0.0
2017-Sep-17 13:30N 49°29' E 000°08'0 0.0
2017-Sep-17 13:00N 49°29' E 000°08'0 0.0
2017-Sep-17 12:29N 49°29' E 000°08'0 0.0
2017-Sep-17 11:59N 49°29' E 000°08'0 0.0
2017-Sep-17 11:30N 49°29' E 000°08'0 0.0
2017-Sep-17 10:59N 49°29' E 000°08'0 0.0
2017-Sep-17 10:29N 49°29' E 000°08'0 0.0
2017-Sep-17 09:58N 49°29' E 000°08'0 0.0
2017-Sep-17 09:28N 49°29' E 000°08'0 0.0
2017-Sep-17 08:58N 49°29' E 000°08'0 0.0
2017-Sep-17 08:28N 49°29' E 000°08'0 0.0
2017-Sep-17 08:00N 49°29' E 000°08'0 0.0
2017-Sep-17 07:30N 49°29' E 000°08'0 0.0
2017-Sep-17 07:00N 49°29' E 000°08'0 0.0
2017-Sep-17 06:30N 49°29' E 000°08'0 0.0
2017-Sep-17 06:00N 49°29' E 000°08'0 0.0
2017-Sep-17 05:29N 49°29' E 000°08'0 0.0
2017-Sep-17 04:59N 49°29' E 000°08'0 0.0
2017-Sep-17 04:29N 49°29' E 000°08'0 0.0
2017-Sep-17 03:59N 49°29' E 000°08'0 0.0
2017-Sep-17 03:29N 49°29' E 000°08'0 0.0
2017-Sep-17 02:58N 49°29' E 000°08'0 0.0
2017-Sep-17 02:28N 49°29' E 000°08'0 0.0
2017-Sep-17 01:58N 49°29' E 000°08'0 0.0
2017-Sep-17 01:28N 49°29' E 000°08'0 0.0
2017-Sep-17 01:00N 49°29' E 000°08'0 0.0
2017-Sep-17 00:30N 49°29' E 000°08'0 0.0
2017-Sep-17 00:00N 49°29' E 000°08'0 0.0
2017-Sep-16 23:30N 49°29' E 000°08'0 0.0
2017-Sep-16 23:00N 49°29' E 000°08'0 0.0
2017-Sep-16 22:29N 49°29' E 000°08'0 0.0
2017-Sep-16 21:59N 49°29' E 000°08'0 0.0
2017-Sep-16 21:29N 49°29' E 000°08'0 0.0
2017-Sep-16 20:59N 49°29' E 000°08'0 0.0
2017-Sep-16 20:29N 49°29' E 000°08'0 0.0
2017-Sep-16 19:58N 49°29' E 000°08'0 0.0
2017-Sep-16 19:28N 49°29' E 000°08'0 0.0
2017-Sep-16 18:58N 49°29' E 000°08'0 0.0
2017-Sep-16 18:28N 49°29' E 000°08'0 0.0
2017-Sep-16 18:00N 49°29' E 000°08'0 0.0
2017-Sep-16 17:30N 49°29' E 000°08'0 0.0
2017-Sep-16 17:00N 49°29' E 000°08'0 0.0
2017-Sep-16 16:30N 49°29' E 000°08'0 0.0
2017-Sep-16 16:00N 49°29' E 000°08'0 0.0
2017-Sep-16 15:29N 49°29' E 000°08'0 0.0
2017-Sep-16 14:59N 49°29' E 000°08'0 0.0
2017-Sep-16 14:29N 49°29' E 000°08'0 0.0
2017-Sep-16 13:59N 49°29' E 000°08'0 0.0
2017-Sep-16 13:29N 49°29' E 000°08'0 0.0
2017-Sep-16 12:58N 49°29' E 000°08'0 0.0
2017-Sep-16 12:28N 49°29' E 000°08'0 0.0
2017-Sep-16 11:58N 49°29' E 000°08'0 0.0
2017-Sep-16 11:28N 49°29' E 000°08'0 0.0
2017-Sep-16 11:00N 49°29' E 000°08'0 0.0
2017-Sep-16 10:30N 49°29' E 000°08'0 0.0
2017-Sep-16 10:00N 49°29' E 000°08'0 0.0
2017-Sep-16 09:30N 49°29' E 000°08'0 0.0
2017-Sep-16 09:00N 49°29' E 000°08'0 0.0
2017-Sep-16 08:29N 49°29' E 000°08'0 0.0
2017-Sep-16 07:59N 49°29' E 000°08'0 0.0
2017-Sep-16 07:29N 49°29' E 000°08'0 0.0
2017-Sep-16 06:59N 49°29' E 000°08'0 0.0
2017-Sep-16 06:29N 49°29' E 000°08'0 0.0
2017-Sep-16 05:55N 49°29' E 000°08'0 0.0
2017-Sep-16 05:28N 49°29' E 000°08'0 0.0
2017-Sep-16 04:58N 49°29' E 000°08'0 0.0
2017-Sep-16 04:28N 49°29' E 000°08'0 0.0
2017-Sep-16 04:00N 49°29' E 000°08'0 0.0
2017-Sep-16 03:30N 49°29' E 000°08'0 0.0
2017-Sep-16 03:00N 49°29' E 000°08'0 0.0
2017-Sep-16 02:30N 49°29' E 000°08'0 0.0
2017-Sep-16 02:00N 49°29' E 000°08'0 0.0
2017-Sep-16 01:29N 49°29' E 000°08'0 0.0
2017-Sep-16 00:59N 49°29' E 000°08'0 0.0
2017-Sep-16 00:29N 49°29' E 000°08'0 0.0
2017-Sep-15 23:59N 49°29' E 000°08'0 0.0
2017-Sep-15 23:28N 49°29' E 000°08'0 0.0
2017-Sep-15 22:58N 49°29' E 000°08'0 0.0
2017-Sep-15 22:28N 49°29' E 000°08'0 0.0
2017-Sep-15 21:58N 49°29' E 000°08'0 0.0
2017-Sep-15 21:30N 49°29' E 000°08'0 0.5
2017-Sep-15 21:00N 49°29' E 000°08'4 8.1
2017-Sep-15 20:30N 49°30' E 000°02'611.1
2017-Sep-15 20:00N 49°32' W 000°06'612.2
2017-Sep-15 19:30N 49°38' W 000°07'713.8
2017-Sep-15 19:00N 49°45' W 000°09'713.6
2017-Sep-15 18:30N 49°52' W 000°09'2712.5
2017-Sep-15 16:21N 50°19' W 000°07'411.9
2017-Sep-15 16:00N 50°23' W 000°07'510.2
2017-Sep-15 15:30N 50°28' W 000°05'511.0
2017-Sep-15 15:00N 50°29' E 000°04'611.3
2017-Sep-15 14:30N 50°31' E 000°12'611.7
2017-Sep-15 14:00N 50°32' E 000°21'612.1
2017-Sep-15 13:30N 50°34' E 000°30'612.2
2017-Sep-15 13:00N 50°37' E 000°39'612.8
2017-Sep-15 12:30N 50°41' E 000°46'713.0
2017-Sep-15 12:00N 50°45' E 000°54'713.0
2017-Sep-15 11:28N 50°50' E 001°02'812.8
2017-Sep-15 10:48N 50°56' E 001°12'412.3
2017-Sep-15 10:30N 50°58' E 001°16'612.0
2017-Sep-15 10:00N 51°02' E 001°24'611.7
2017-Sep-15 09:30N 51°06' E 001°31'611.2
2017-Sep-15 09:00N 51°09' E 001°38'510.9
2017-Sep-15 08:30N 51°13' E 001°44'510.7
2017-Sep-15 08:00N 51°17' E 001°49'611.2
2017-Sep-15 07:30N 51°22' E 001°53'611.5
2017-Sep-15 07:00N 51°27' E 001°57'611.8
2017-Sep-15 06:30N 51°32' E 002°04'612.0
2017-Sep-15 06:00N 51°36' E 002°11'712.2
2017-Sep-15 05:26N 51°41' E 002°19'512.7
2017-Sep-15 05:00N 51°45' E 002°25'  
2017-Sep-12 00:01N 66°35' E 011°21'011.9
2017-Sep-12 00:00N 66°36' E 011°22'612.7
2017-Sep-11 23:29N 66°41' E 011°30'612.1
2017-Sep-11 23:00N 66°46' E 011°38'3412.3
2017-Sep-11 20:11N 67°07' E 012°48'213.4
2017-Sep-11 20:00N 67°08' E 012°54'713.5
2017-Sep-11 19:30N 67°10' E 013°11'713.9
2017-Sep-11 18:59N 67°12' E 013°28'713.8
2017-Sep-11 18:30N 67°14' E 013°45'713.1
2017-Sep-11 18:01N 67°12' E 014°01'612.5
2017-Sep-11 17:30N 67°16' E 014°14'4 7.3
2017-Sep-11 17:00N 67°17' E 014°23'0 0.0
2017-Sep-11 16:28N 67°17' E 014°23'0 0.0
2017-Sep-11 15:58N 67°17' E 014°23'0 0.0
2017-Sep-11 15:28N 67°17' E 014°23'0 0.3
2017-Sep-11 15:00N 67°17' E 014°23'4 7.2
2017-Sep-11 14:31N 67°15' E 014°17'713.4
2017-Sep-11 14:00N 67°16' E 014°34'4 6.4
2017-Sep-11 13:22N 67°18' E 014°43'0 0.0
2017-Sep-11 12:55N 67°18' E 014°43'0 0.0
2017-Sep-11 12:25N 67°18' E 014°43'0 0.0
2017-Sep-11 12:01N 67°18' E 014°43'  

Dump ship's entire track history